createdAt,value
2022-09-27T00:00:36.169Z,975.69
2022-09-27T00:01:36.176Z,975.70
2022-09-27T00:02:36.201Z,975.67
2022-09-27T00:03:36.098Z,975.69
2022-09-27T00:04:36.066Z,975.69
2022-09-27T00:05:36.051Z,975.71
2022-09-27T00:06:40.594Z,975.71
2022-09-27T00:07:36.017Z,975.67
2022-09-27T00:08:35.990Z,975.70
2022-09-27T00:09:35.961Z,975.68
2022-09-27T00:10:35.940Z,975.70
2022-09-27T00:11:35.957Z,975.65
2022-09-27T00:12:35.889Z,975.64
2022-09-27T00:13:35.861Z,975.64
2022-09-27T00:14:35.849Z,975.62
2022-09-27T00:15:35.854Z,975.62
2022-09-27T00:16:35.814Z,975.59
2022-09-27T00:17:35.775Z,975.60
2022-09-27T00:18:35.744Z,975.56
2022-09-27T00:19:35.734Z,975.64
2022-09-27T00:20:35.699Z,975.68
2022-09-27T00:21:35.676Z,975.62
2022-09-27T00:22:35.685Z,975.64
2022-09-27T00:23:35.653Z,975.68
2022-09-27T00:24:35.600Z,975.57
2022-09-27T00:25:35.589Z,975.56
2022-09-27T00:26:35.568Z,975.56
2022-09-27T00:27:35.533Z,975.60
2022-09-27T00:28:35.515Z,975.63
2022-09-27T00:29:35.488Z,975.59
2022-09-27T00:30:35.870Z,975.58
2022-09-27T00:31:35.571Z,975.60
2022-09-27T00:32:35.417Z,975.61
2022-09-27T00:33:35.410Z,975.59
2022-09-27T00:34:35.380Z,975.59
2022-09-27T00:35:35.349Z,975.59
2022-09-27T00:36:35.331Z,975.57
2022-09-27T00:37:35.300Z,975.52
2022-09-27T00:38:35.311Z,975.48
2022-09-27T00:39:35.259Z,975.49
2022-09-27T00:40:35.292Z,975.49
2022-09-27T00:41:35.215Z,975.45
2022-09-27T00:42:35.211Z,975.49
2022-09-27T00:43:35.172Z,975.43
2022-09-27T00:44:35.137Z,975.40
2022-09-27T00:45:35.120Z,975.39
2022-09-27T00:46:35.145Z,975.41
2022-09-27T00:47:35.070Z,975.47
2022-09-27T00:48:35.044Z,975.43
2022-09-27T00:49:35.040Z,975.42
2022-09-27T00:50:35.007Z,975.43
2022-09-27T00:51:34.967Z,975.44
2022-09-27T00:52:35.004Z,975.39
2022-09-27T00:53:34.926Z,975.41
2022-09-27T00:54:34.901Z,975.38
2022-09-27T00:55:34.886Z,975.41
2022-09-27T00:56:34.860Z,975.35
2022-09-27T00:57:34.833Z,975.28
2022-09-27T00:58:34.838Z,975.36
2022-09-27T00:59:34.790Z,975.29
2022-09-27T01:00:34.761Z,975.30
2022-09-27T01:01:34.778Z,975.29
2022-09-27T01:02:34.946Z,975.33
2022-09-27T01:03:34.699Z,975.34
2022-09-27T01:04:34.680Z,975.36
2022-09-27T01:05:34.652Z,975.40
2022-09-27T01:06:34.626Z,975.37
2022-09-27T01:07:34.601Z,975.39
2022-09-27T01:08:34.592Z,975.42
2022-09-27T01:09:34.562Z,975.37
2022-09-27T01:10:34.526Z,975.39
2022-09-27T01:11:34.511Z,975.40
2022-09-27T01:12:34.495Z,975.37
2022-09-27T01:13:34.464Z,975.36
2022-09-27T01:14:34.434Z,975.34
2022-09-27T01:15:34.462Z,975.32
2022-09-27T01:16:34.389Z,975.36
2022-09-27T01:17:34.363Z,975.35
2022-09-27T01:18:34.348Z,975.36
2022-09-27T01:19:34.336Z,975.35
2022-09-27T01:20:34.296Z,975.35
2022-09-27T01:21:34.283Z,975.35
2022-09-27T01:22:34.254Z,975.39
2022-09-27T01:23:34.221Z,975.36
2022-09-27T01:24:34.201Z,975.38
2022-09-27T01:25:34.178Z,975.36
2022-09-27T01:26:34.158Z,975.36
2022-09-27T01:27:34.129Z,975.39
2022-09-27T01:28:34.109Z,975.37
2022-09-27T01:29:34.131Z,975.35
2022-09-27T01:30:34.067Z,975.37
2022-09-27T01:31:34.218Z,975.39
2022-09-27T01:32:34.018Z,975.38
2022-09-27T01:33:33.989Z,975.39
2022-09-27T01:34:33.972Z,975.35
2022-09-27T01:35:33.962Z,975.41
2022-09-27T01:36:33.953Z,975.33
2022-09-27T01:37:33.899Z,975.34
2022-09-27T01:38:33.875Z,975.33
2022-09-27T01:39:33.851Z,975.31
2022-09-27T01:40:33.894Z,975.33
2022-09-27T01:41:33.804Z,975.32
2022-09-27T01:42:33.798Z,975.28
2022-09-27T01:43:33.783Z,975.30
2022-09-27T01:44:33.744Z,975.31
2022-09-27T01:45:33.733Z,975.27
2022-09-27T01:46:33.803Z,975.27
2022-09-27T01:47:33.663Z,975.26
2022-09-27T01:48:33.657Z,975.24
2022-09-27T01:49:33.685Z,975.25
2022-09-27T01:50:33.595Z,975.28
2022-09-27T01:51:33.582Z,975.28
2022-09-27T01:52:33.591Z,975.27
2022-09-27T01:53:33.529Z,975.28
2022-09-27T01:54:33.536Z,975.27
2022-09-27T01:55:33.534Z,975.25
2022-09-27T01:56:33.462Z,975.25
2022-09-27T01:57:33.434Z,975.28
2022-09-27T01:58:33.456Z,975.21
2022-09-27T01:59:33.382Z,975.25
2022-09-27T02:00:33.365Z,975.25
2022-09-27T02:01:33.392Z,975.28
2022-09-27T02:02:33.382Z,975.24
2022-09-27T02:03:33.292Z,975.29
2022-09-27T02:04:33.272Z,975.29
2022-09-27T02:05:33.261Z,975.26
2022-09-27T02:06:33.305Z,975.27
2022-09-27T02:07:33.208Z,975.28
2022-09-27T02:08:33.174Z,975.26
2022-09-27T02:09:33.150Z,975.31
2022-09-27T02:10:33.129Z,975.29
2022-09-27T02:11:33.105Z,975.28
2022-09-27T02:12:33.083Z,975.27
2022-09-27T02:13:33.052Z,975.31
2022-09-27T02:14:33.031Z,975.26
2022-09-27T02:15:33.034Z,975.30
2022-09-27T02:16:32.984Z,975.26
2022-09-27T02:17:32.958Z,975.26
2022-09-27T02:18:32.948Z,975.24
2022-09-27T02:19:32.922Z,975.30
2022-09-27T02:20:32.910Z,975.28
2022-09-27T02:21:32.867Z,975.30
2022-09-27T02:22:32.843Z,975.26
2022-09-27T02:23:32.825Z,975.29
2022-09-27T02:24:32.801Z,975.26
2022-09-27T02:25:32.793Z,975.28
2022-09-27T02:26:32.789Z,975.29
2022-09-27T02:27:32.738Z,975.22
2022-09-27T02:28:32.707Z,975.27
2022-09-27T02:29:32.708Z,975.26
2022-09-27T02:30:32.792Z,975.25
2022-09-27T02:31:32.754Z,975.29
2022-09-27T02:32:32.604Z,975.30
2022-09-27T02:33:32.584Z,975.33
2022-09-27T02:34:32.557Z,975.32
2022-09-27T02:35:32.541Z,975.29
2022-09-27T02:36:32.680Z,975.30
2022-09-27T02:37:32.520Z,975.30
2022-09-27T02:38:32.464Z,975.27
2022-09-27T02:39:32.441Z,975.27
2022-09-27T02:40:32.554Z,975.30
2022-09-27T02:41:32.401Z,975.31
2022-09-27T02:42:32.375Z,975.30
2022-09-27T02:43:32.351Z,975.24
2022-09-27T02:44:32.331Z,975.24
2022-09-27T02:45:32.308Z,975.28
2022-09-27T02:46:32.329Z,975.25
2022-09-27T02:47:32.297Z,975.28
2022-09-27T02:48:32.233Z,975.31
2022-09-27T02:49:32.223Z,975.28
2022-09-27T02:50:32.193Z,975.31
2022-09-27T02:51:32.163Z,975.33
2022-09-27T02:52:32.157Z,975.32
2022-09-27T02:53:32.142Z,975.29
2022-09-27T02:54:32.130Z,975.31
2022-09-27T02:55:32.105Z,975.39
2022-09-27T02:56:32.100Z,975.34
2022-09-27T02:57:32.030Z,975.37
2022-09-27T02:58:31.999Z,975.35
2022-09-27T02:59:31.971Z,975.35
2022-09-27T03:00:31.947Z,975.35
2022-09-27T03:01:32.039Z,975.34
2022-09-27T03:02:31.960Z,975.39
2022-09-27T03:03:31.917Z,975.36
2022-09-27T03:04:31.864Z,975.37
2022-09-27T03:05:31.839Z,975.36
2022-09-27T03:06:31.805Z,975.39
2022-09-27T03:07:31.790Z,975.42
2022-09-27T03:08:31.806Z,975.46
2022-09-27T03:09:31.734Z,975.43
2022-09-27T03:10:31.716Z,975.44
2022-09-27T03:11:31.711Z,975.46
2022-09-27T03:12:31.695Z,975.49
2022-09-27T03:13:31.671Z,975.47
2022-09-27T03:14:31.672Z,975.43
2022-09-27T03:15:31.595Z,975.49
2022-09-27T03:16:31.663Z,975.41
2022-09-27T03:17:31.559Z,975.44
2022-09-27T03:18:31.530Z,975.45
2022-09-27T03:19:31.510Z,975.43
2022-09-27T03:20:31.487Z,975.45
2022-09-27T03:21:31.463Z,975.50
2022-09-27T03:22:31.432Z,975.49
2022-09-27T03:23:31.419Z,975.47
2022-09-27T03:24:31.405Z,975.51
2022-09-27T03:25:31.375Z,975.58
2022-09-27T03:26:31.347Z,975.51
2022-09-27T03:27:31.309Z,975.53
2022-09-27T03:28:31.292Z,975.55
2022-09-27T03:29:31.271Z,975.54
2022-09-27T03:30:31.307Z,975.55
2022-09-27T03:31:31.343Z,975.52
2022-09-27T03:32:31.199Z,975.59
2022-09-27T03:33:31.190Z,975.55
2022-09-27T03:34:31.167Z,975.60
2022-09-27T03:35:31.147Z,975.62
2022-09-27T03:36:31.124Z,975.65
2022-09-27T03:37:31.081Z,975.64
2022-09-27T03:38:31.060Z,975.61
2022-09-27T03:39:31.038Z,975.61
2022-09-27T03:40:31.090Z,975.63
2022-09-27T03:41:31.047Z,975.66
2022-09-27T03:42:30.963Z,975.64
2022-09-27T03:43:30.950Z,975.65
2022-09-27T03:44:30.922Z,975.66
2022-09-27T03:45:30.898Z,975.69
2022-09-27T03:46:30.930Z,975.69
2022-09-27T03:47:30.848Z,975.61
2022-09-27T03:48:30.833Z,975.67
2022-09-27T03:49:31.169Z,975.76
2022-09-27T03:50:30.792Z,975.70
2022-09-27T03:51:30.875Z,975.84
2022-09-27T03:52:30.763Z,975.87
2022-09-27T03:53:30.762Z,975.77
2022-09-27T03:54:30.779Z,975.76
2022-09-27T03:55:30.666Z,975.78
2022-09-27T03:56:30.698Z,975.82
2022-09-27T03:57:30.615Z,975.84
2022-09-27T03:58:30.590Z,975.81
2022-09-27T03:59:30.573Z,975.82
2022-09-27T04:00:30.537Z,975.83
2022-09-27T04:01:30.627Z,975.86
2022-09-27T04:02:30.534Z,975.90
2022-09-27T04:03:30.488Z,975.94
2022-09-27T04:04:30.453Z,975.96
2022-09-27T04:05:39.374Z,975.97
2022-09-27T04:07:24.020Z,976.03
2022-09-27T04:08:23.742Z,976.04
2022-09-27T04:09:23.705Z,976.08
2022-09-27T04:10:23.684Z,976.08
2022-09-27T04:11:23.663Z,976.06
2022-09-27T04:12:23.677Z,976.09
2022-09-27T04:13:23.624Z,976.09
2022-09-27T04:14:23.586Z,976.09
2022-09-27T04:15:23.566Z,976.07
2022-09-27T04:16:23.584Z,976.08
2022-09-27T04:17:23.514Z,976.13
2022-09-27T04:18:23.496Z,976.11
2022-09-27T04:19:23.466Z,976.11
2022-09-27T04:20:23.443Z,976.18
2022-09-27T04:21:23.425Z,976.19
2022-09-27T04:22:23.410Z,976.20
2022-09-27T04:23:27.655Z,976.21
2022-09-27T04:24:23.347Z,976.27
2022-09-27T04:25:23.326Z,976.23
2022-09-27T04:26:23.313Z,976.27
2022-09-27T04:27:23.302Z,976.26
2022-09-27T04:28:23.257Z,976.30
2022-09-27T04:29:23.232Z,976.30
2022-09-27T04:30:23.211Z,976.36
2022-09-27T04:31:23.355Z,976.31
2022-09-27T04:32:23.187Z,976.38
2022-09-27T04:33:23.142Z,976.38
2022-09-27T04:34:23.116Z,976.40
2022-09-27T04:35:23.101Z,976.41
2022-09-27T04:36:23.070Z,976.42
2022-09-27T04:37:23.039Z,976.34
2022-09-27T04:38:23.023Z,976.44
2022-09-27T04:39:22.999Z,976.47
2022-09-27T04:40:23.003Z,976.45
2022-09-27T04:41:22.943Z,976.47
2022-09-27T04:42:22.931Z,976.47
2022-09-27T04:43:22.896Z,976.49
2022-09-27T04:44:22.873Z,976.47
2022-09-27T04:45:22.862Z,976.49
2022-09-27T04:46:22.926Z,976.51
2022-09-27T04:47:22.811Z,976.53
2022-09-27T04:48:22.787Z,976.49
2022-09-27T04:49:22.773Z,976.50
2022-09-27T04:50:22.755Z,976.47
2022-09-27T04:51:22.709Z,976.49
2022-09-27T04:52:22.699Z,976.49
2022-09-27T04:53:22.659Z,976.50
2022-09-27T04:54:22.687Z,976.51
2022-09-27T04:55:22.617Z,976.51
2022-09-27T04:56:22.591Z,976.53
2022-09-27T04:57:22.573Z,976.53
2022-09-27T04:58:22.546Z,976.55
2022-09-27T04:59:22.534Z,976.57
2022-09-27T05:00:22.503Z,976.59
2022-09-27T05:01:22.493Z,976.56
2022-09-27T05:02:22.503Z,976.57
2022-09-27T05:03:22.426Z,976.59
2022-09-27T05:04:22.407Z,976.64
2022-09-27T05:05:22.376Z,976.60
2022-09-27T05:06:22.350Z,976.62
2022-09-27T05:07:22.329Z,976.65
2022-09-27T05:08:22.310Z,976.69
2022-09-27T05:09:22.287Z,976.68
2022-09-27T05:10:22.259Z,976.71
2022-09-27T05:11:22.234Z,976.69
2022-09-27T05:12:22.218Z,976.74
2022-09-27T05:13:22.185Z,976.74
2022-09-27T05:14:22.177Z,976.78
2022-09-27T05:15:22.135Z,976.73
2022-09-27T05:16:22.175Z,976.73
2022-09-27T05:17:22.091Z,976.73
2022-09-27T05:18:22.068Z,976.77
2022-09-27T05:19:22.040Z,976.74
2022-09-27T05:20:22.016Z,976.81
2022-09-27T05:21:21.999Z,976.81
2022-09-27T05:22:21.978Z,976.81
2022-09-27T05:23:21.959Z,976.80
2022-09-27T05:24:21.935Z,976.82
2022-09-27T05:25:21.950Z,976.84
2022-09-27T05:26:21.876Z,976.83
2022-09-27T05:27:21.855Z,976.86
2022-09-27T05:28:21.825Z,976.85
2022-09-27T05:29:21.798Z,976.83
2022-09-27T05:30:21.783Z,976.87
2022-09-27T05:31:21.947Z,976.88
2022-09-27T05:32:21.727Z,976.91
2022-09-27T05:33:21.705Z,976.95
2022-09-27T05:34:21.683Z,976.90
2022-09-27T05:35:21.665Z,976.97
2022-09-27T05:36:21.640Z,976.98
2022-09-27T05:37:21.612Z,977.01
2022-09-27T05:38:21.587Z,977.02
2022-09-27T05:39:21.583Z,976.98
2022-09-27T05:40:37.068Z,977.05
2022-09-27T05:41:21.581Z,977.03
2022-09-27T05:42:21.490Z,977.01
2022-09-27T05:43:21.474Z,977.04
2022-09-27T05:44:21.455Z,977.04
2022-09-27T05:45:21.425Z,977.06
2022-09-27T05:46:21.499Z,977.06
2022-09-27T05:47:21.377Z,977.07
2022-09-27T05:48:21.349Z,977.09
2022-09-27T05:49:21.324Z,977.09
2022-09-27T05:50:21.304Z,977.09
2022-09-27T05:51:21.377Z,977.14
2022-09-27T05:52:21.575Z,977.17
2022-09-27T05:53:21.230Z,977.14
2022-09-27T05:54:21.213Z,977.18
2022-09-27T05:55:21.182Z,977.15
2022-09-27T05:56:21.161Z,977.21
2022-09-27T05:57:21.140Z,977.14
2022-09-27T05:58:21.110Z,977.22
2022-09-27T05:59:21.097Z,977.18
2022-09-27T06:00:21.069Z,977.22
2022-09-27T06:01:21.080Z,977.25
2022-09-27T06:02:21.083Z,977.19
2022-09-27T06:03:20.994Z,977.23
2022-09-27T06:04:20.971Z,977.28
2022-09-27T06:05:20.948Z,977.31
2022-09-27T06:06:20.921Z,977.28
2022-09-27T06:07:20.912Z,977.32
2022-09-27T06:08:20.973Z,977.34
2022-09-27T06:09:20.874Z,977.36
2022-09-27T06:10:20.864Z,977.30
2022-09-27T06:11:21.000Z,977.30
2022-09-27T06:12:20.797Z,977.34
2022-09-27T06:13:20.760Z,977.36
2022-09-27T06:14:20.753Z,977.34
2022-09-27T06:15:20.710Z,977.32
2022-09-27T06:16:20.800Z,977.41
2022-09-27T06:17:20.677Z,977.41
2022-09-27T06:18:20.634Z,977.40
2022-09-27T06:19:20.627Z,977.41
2022-09-27T06:20:20.721Z,977.40
2022-09-27T06:21:20.570Z,977.42
2022-09-27T06:22:20.545Z,977.44
2022-09-27T06:23:20.539Z,977.45
2022-09-27T06:24:20.492Z,977.43
2022-09-27T06:25:20.482Z,977.42
2022-09-27T06:26:20.445Z,977.45
2022-09-27T06:27:20.437Z,977.43
2022-09-27T06:28:20.403Z,977.43
2022-09-27T06:29:20.380Z,977.50
2022-09-27T06:30:20.742Z,977.47
2022-09-27T06:31:20.380Z,977.51
2022-09-27T06:32:20.306Z,977.56
2022-09-27T06:33:20.321Z,977.46
2022-09-27T06:34:20.259Z,977.49
2022-09-27T06:35:20.238Z,977.51
2022-09-27T06:36:20.218Z,977.55
2022-09-27T06:37:20.230Z,977.51
2022-09-27T06:38:20.165Z,977.54
2022-09-27T06:39:20.141Z,977.62
2022-09-27T06:40:20.200Z,977.61
2022-09-27T06:41:20.133Z,977.58
2022-09-27T06:42:20.077Z,977.63
2022-09-27T06:43:20.047Z,977.65
2022-09-27T06:44:20.021Z,977.65
2022-09-27T06:45:19.997Z,977.63
2022-09-27T06:46:20.030Z,977.60
2022-09-27T06:47:20.052Z,977.65
2022-09-27T06:48:19.948Z,977.67
2022-09-27T06:49:19.969Z,977.70
2022-09-27T06:50:19.917Z,977.70
2022-09-27T06:51:19.862Z,977.73
2022-09-27T06:52:19.833Z,977.75
2022-09-27T06:53:19.819Z,977.76
2022-09-27T06:54:19.796Z,977.73
2022-09-27T06:55:19.769Z,977.83
2022-09-27T06:56:19.775Z,977.83
2022-09-27T06:57:19.720Z,977.87
2022-09-27T06:58:19.702Z,977.84
2022-09-27T06:59:19.676Z,977.87
2022-09-27T07:00:19.735Z,977.88
2022-09-27T07:01:19.686Z,977.88
2022-09-27T07:02:19.649Z,977.87
2022-09-27T07:03:19.629Z,977.83
2022-09-27T07:04:19.670Z,977.96
2022-09-27T07:05:19.534Z,977.97
2022-09-27T07:06:19.506Z,977.98
2022-09-27T07:07:19.489Z,978.00
2022-09-27T07:08:19.466Z,978.02
2022-09-27T07:09:19.439Z,977.99
2022-09-27T07:10:19.476Z,978.07
2022-09-27T07:11:19.392Z,978.08
2022-09-27T07:12:19.405Z,978.10
2022-09-27T07:13:19.360Z,978.13
2022-09-27T07:14:19.370Z,978.13
2022-09-27T07:15:19.311Z,978.13
2022-09-27T07:16:19.383Z,978.16
2022-09-27T07:17:19.248Z,978.18
2022-09-27T07:18:19.269Z,978.21
2022-09-27T07:19:19.304Z,978.19
2022-09-27T07:20:19.183Z,978.21
2022-09-27T07:21:19.161Z,978.26
2022-09-27T07:22:19.137Z,978.21
2022-09-27T07:23:19.122Z,978.28
2022-09-27T07:24:19.088Z,978.32
2022-09-27T07:25:19.119Z,978.29
2022-09-27T07:26:19.044Z,978.36
2022-09-27T07:27:19.018Z,978.35
2022-09-27T07:28:22.145Z,978.38
2022-09-27T07:29:19.052Z,978.40
2022-09-27T07:30:18.987Z,978.39
2022-09-27T07:31:18.973Z,978.39
2022-09-27T07:32:18.910Z,978.40
2022-09-27T07:33:18.879Z,978.37
2022-09-27T07:34:18.871Z,978.49
2022-09-27T07:35:18.838Z,978.44
2022-09-27T07:36:18.812Z,978.43
2022-09-27T07:37:18.789Z,978.48
2022-09-27T07:38:18.791Z,978.49
2022-09-27T07:39:18.752Z,978.50
2022-09-27T07:40:18.753Z,978.51
2022-09-27T07:41:18.709Z,978.54
2022-09-27T07:42:18.681Z,978.52
2022-09-27T07:43:18.652Z,978.51
2022-09-27T07:44:18.649Z,978.57
2022-09-27T07:45:18.607Z,978.60
2022-09-27T07:46:18.630Z,978.57
2022-09-27T07:47:18.558Z,978.57
2022-09-27T07:48:18.544Z,978.54
2022-09-27T07:49:18.520Z,978.64
2022-09-27T07:50:18.535Z,978.59
2022-09-27T07:51:18.490Z,978.63
2022-09-27T07:52:18.539Z,978.66
2022-09-27T07:53:18.444Z,978.60
2022-09-27T07:54:18.539Z,978.67
2022-09-27T07:55:18.385Z,978.71
2022-09-27T07:56:18.353Z,978.67
2022-09-27T07:57:18.411Z,978.72
2022-09-27T07:58:18.311Z,978.72
2022-09-27T07:59:18.295Z,978.74
2022-09-27T08:00:18.262Z,978.74
2022-09-27T08:01:18.327Z,978.72
2022-09-27T08:02:18.322Z,978.80
2022-09-27T08:03:18.210Z,978.82
2022-09-27T08:04:18.170Z,978.84
2022-09-27T08:05:18.159Z,978.77
2022-09-27T08:06:18.125Z,978.85
2022-09-27T08:07:18.103Z,978.83
2022-09-27T08:08:18.087Z,978.82
2022-09-27T08:09:18.062Z,978.88
2022-09-27T08:10:18.030Z,978.86
2022-09-27T08:11:18.064Z,978.84
2022-09-27T08:12:18.059Z,978.90
2022-09-27T08:13:17.983Z,978.89
2022-09-27T08:14:17.996Z,978.91
2022-09-27T08:15:17.936Z,978.91
2022-09-27T08:16:17.913Z,978.97
2022-09-27T08:17:17.882Z,978.98
2022-09-27T08:18:17.925Z,978.96
2022-09-27T08:19:18.013Z,978.99
2022-09-27T08:20:17.807Z,979.01
2022-09-27T08:21:17.794Z,978.99
2022-09-27T08:22:17.908Z,978.98
2022-09-27T08:23:17.740Z,978.97
2022-09-27T08:24:17.725Z,979.00
2022-09-27T08:25:17.697Z,978.98
2022-09-27T08:26:17.690Z,978.99
2022-09-27T08:27:17.888Z,978.96
2022-09-27T08:28:17.692Z,978.96
2022-09-27T08:29:17.695Z,978.96
2022-09-27T08:30:17.761Z,978.95
2022-09-27T08:31:17.599Z,978.96
2022-09-27T08:32:22.292Z,978.99
2022-09-27T08:33:17.525Z,978.98
2022-09-27T08:34:17.649Z,978.99
2022-09-27T08:35:17.473Z,978.99
2022-09-27T08:36:17.532Z,979.02
2022-09-27T08:37:17.447Z,979.05
2022-09-27T08:38:17.405Z,979.10
2022-09-27T08:39:17.600Z,979.08
2022-09-27T08:40:17.767Z,979.10
2022-09-27T08:41:17.340Z,979.09
2022-09-27T08:42:17.320Z,979.12
2022-09-27T08:43:17.299Z,979.08
2022-09-27T08:44:17.529Z,979.07
2022-09-27T08:45:17.262Z,979.08
2022-09-27T08:46:17.229Z,979.08
2022-09-27T08:47:17.209Z,979.08
2022-09-27T08:48:17.206Z,979.06
2022-09-27T08:49:17.198Z,979.12
2022-09-27T08:50:17.153Z,979.14
2022-09-27T08:51:17.151Z,979.14
2022-09-27T08:52:17.106Z,979.16
2022-09-27T08:53:17.084Z,979.18
2022-09-27T08:54:17.204Z,979.20
2022-09-27T08:55:17.085Z,979.15
2022-09-27T08:56:17.023Z,979.20
2022-09-27T08:57:17.005Z,979.19
2022-09-27T08:58:16.981Z,979.26
2022-09-27T08:59:16.960Z,979.28
2022-09-27T09:00:16.948Z,979.27
2022-09-27T09:01:17.021Z,979.26
2022-09-27T09:02:16.937Z,979.32
2022-09-27T09:03:16.878Z,979.33
2022-09-27T09:04:17.076Z,979.38
2022-09-27T09:05:16.849Z,979.33
2022-09-27T09:06:16.824Z,979.29
2022-09-27T09:07:17.004Z,979.36
2022-09-27T09:08:16.782Z,979.36
2022-09-27T09:09:16.757Z,979.38
2022-09-27T09:10:16.743Z,979.40
2022-09-27T09:11:16.802Z,979.44
2022-09-27T09:12:16.698Z,979.45
2022-09-27T09:13:16.675Z,979.40
2022-09-27T09:15:16.646Z,979.42
2022-09-27T09:16:16.662Z,979.42
2022-09-27T09:17:16.595Z,979.41
2022-09-27T09:18:16.585Z,979.40
2022-09-27T09:19:16.561Z,979.39
2022-09-27T09:20:17.516Z,979.39
2022-09-27T09:21:16.512Z,979.35
2022-09-27T09:22:16.486Z,979.34
2022-09-27T09:23:16.470Z,979.33
2022-09-27T09:24:16.569Z,979.35
2022-09-27T09:25:16.424Z,979.37
2022-09-27T09:26:16.400Z,979.38
2022-09-27T09:27:16.407Z,979.37
2022-09-27T09:28:16.365Z,979.40
2022-09-27T09:29:16.350Z,979.33
2022-09-27T09:30:16.336Z,979.37
2022-09-27T09:31:16.389Z,979.33
2022-09-27T09:32:16.284Z,979.39
2022-09-27T09:33:16.758Z,979.32
2022-09-27T09:34:16.336Z,979.35
2022-09-27T09:35:16.234Z,979.37
2022-09-27T09:36:16.250Z,979.36
2022-09-27T09:37:16.195Z,979.31
2022-09-27T09:38:16.155Z,979.28
2022-09-27T09:39:16.136Z,979.28
2022-09-27T09:40:16.180Z,979.27
2022-09-27T09:41:16.100Z,979.28
2022-09-27T09:42:16.075Z,979.27
2022-09-27T09:43:16.046Z,979.26
2022-09-27T09:44:16.130Z,979.27
2022-09-27T09:45:16.069Z,979.25
2022-09-27T09:46:16.000Z,979.22
2022-09-27T09:47:15.974Z,979.26
2022-09-27T09:48:15.951Z,979.26
2022-09-27T09:49:15.933Z,979.20
2022-09-27T09:50:15.913Z,979.19
2022-09-27T09:51:15.901Z,979.19
2022-09-27T09:52:15.875Z,979.17
2022-09-27T09:53:15.869Z,979.20
2022-09-27T09:54:15.927Z,979.21
2022-09-27T09:55:15.812Z,979.21
2022-09-27T09:56:15.793Z,979.23
2022-09-27T09:57:15.792Z,979.21
2022-09-27T09:58:19.818Z,979.21
2022-09-27T09:59:15.729Z,979.22
2022-09-27T10:00:15.720Z,979.16
2022-09-27T10:01:15.736Z,979.11
2022-09-27T10:02:15.833Z,979.20
2022-09-27T10:03:15.669Z,979.15
2022-09-27T10:04:15.776Z,979.18
2022-09-27T10:05:15.638Z,979.15
2022-09-27T10:06:15.593Z,979.13
2022-09-27T10:07:15.574Z,979.16
2022-09-27T10:08:15.550Z,979.12
2022-09-27T10:09:15.529Z,979.13
2022-09-27T10:10:15.508Z,979.10
2022-09-27T10:11:15.490Z,979.10
2022-09-27T10:12:15.472Z,979.16
2022-09-27T10:13:15.447Z,979.12
2022-09-27T10:14:15.517Z,979.10
2022-09-27T10:15:15.408Z,979.11
2022-09-27T10:16:15.434Z,979.09
2022-09-27T10:17:15.390Z,979.11
2022-09-27T10:18:15.366Z,979.11
2022-09-27T10:19:15.355Z,979.02
2022-09-27T10:20:15.311Z,979.02
2022-09-27T10:21:15.306Z,979.00
2022-09-27T10:22:15.292Z,978.99
2022-09-27T10:23:15.250Z,979.02
2022-09-27T10:24:18.438Z,979.02
2022-09-27T10:25:15.231Z,979.00
2022-09-27T10:26:15.186Z,979.01
2022-09-27T10:27:15.173Z,979.05
2022-09-27T10:28:15.144Z,979.09
2022-09-27T10:29:15.127Z,979.05
2022-09-27T10:30:15.102Z,979.08
2022-09-27T10:31:15.170Z,979.10
2022-09-27T10:32:15.063Z,979.04
2022-09-27T10:33:15.038Z,979.03
2022-09-27T10:34:15.112Z,979.05
2022-09-27T10:35:15.001Z,979.10
2022-09-27T10:36:14.969Z,979.13
2022-09-27T10:37:14.980Z,979.10
2022-09-27T10:38:14.942Z,979.11
2022-09-27T10:39:14.905Z,979.10
2022-09-27T10:40:14.934Z,978.99
2022-09-27T10:41:14.872Z,978.98
2022-09-27T10:42:14.854Z,978.99
2022-09-27T10:43:14.830Z,978.93
2022-09-27T10:44:14.808Z,978.89
2022-09-27T10:45:14.796Z,978.89
2022-09-27T10:46:14.771Z,978.89
2022-09-27T10:47:14.751Z,978.95
2022-09-27T10:48:14.738Z,978.90
2022-09-27T10:49:14.711Z,978.88
2022-09-27T10:50:32.435Z,978.87
2022-09-27T10:51:14.758Z,978.93
2022-09-27T10:52:14.647Z,978.91
2022-09-27T10:53:14.641Z,978.94
2022-09-27T10:54:14.642Z,979.02
2022-09-27T10:55:14.583Z,979.00
2022-09-27T10:56:14.566Z,978.98
2022-09-27T10:57:14.555Z,978.99
2022-09-27T10:58:14.522Z,979.04
2022-09-27T10:59:14.502Z,978.98
2022-09-27T11:00:14.479Z,978.98
2022-09-27T11:01:14.491Z,979.00
2022-09-27T11:02:14.436Z,978.98
2022-09-27T11:03:14.413Z,978.98
2022-09-27T11:04:14.472Z,978.98
2022-09-27T11:05:15.631Z,978.95
2022-09-27T11:06:14.351Z,978.91
2022-09-27T11:07:14.334Z,978.95
2022-09-27T11:08:14.311Z,978.91
2022-09-27T11:09:14.292Z,978.87
2022-09-27T11:10:14.279Z,978.91
2022-09-27T11:11:14.279Z,979.00
2022-09-27T11:12:14.235Z,979.01
2022-09-27T11:13:14.213Z,978.98
2022-09-27T11:14:14.192Z,978.91
2022-09-27T11:15:14.174Z,978.92
2022-09-27T11:16:14.164Z,978.92
2022-09-27T11:17:14.119Z,978.95
2022-09-27T11:18:14.099Z,978.91
2022-09-27T11:19:15.598Z,978.87
2022-09-27T11:20:14.058Z,978.90
2022-09-27T11:21:14.038Z,978.87
2022-09-27T11:22:14.014Z,978.89
2022-09-27T11:23:14.026Z,978.94
2022-09-27T11:24:14.056Z,978.90
2022-09-27T11:25:13.956Z,978.87
2022-09-27T11:26:13.933Z,978.90
2022-09-27T11:27:13.915Z,978.90
2022-09-27T11:28:13.888Z,978.90
2022-09-27T11:29:13.868Z,978.88
2022-09-27T11:30:13.848Z,978.88
2022-09-27T11:31:18.861Z,978.87
2022-09-27T11:32:13.808Z,978.86
2022-09-27T11:33:13.782Z,978.82
2022-09-27T11:34:13.814Z,978.77
2022-09-27T11:35:13.753Z,978.77
2022-09-27T11:36:13.729Z,978.77
2022-09-27T11:37:13.699Z,978.78
2022-09-27T11:38:21.152Z,978.75
2022-09-27T11:39:13.858Z,978.77
2022-09-27T11:40:13.703Z,978.72
2022-09-27T11:41:13.619Z,978.73
2022-09-27T11:42:13.599Z,978.80
2022-09-27T11:43:13.587Z,978.75
2022-09-27T11:44:13.554Z,978.75
2022-09-27T11:45:34.147Z,978.77
2022-09-27T11:46:19.247Z,978.75
2022-09-27T11:47:13.590Z,978.78
2022-09-27T11:48:13.467Z,978.72
2022-09-27T11:49:13.526Z,978.75
2022-09-27T11:50:13.432Z,978.74
2022-09-27T11:51:13.407Z,978.81
2022-09-27T11:52:13.389Z,978.70
2022-09-27T11:53:13.368Z,978.75
2022-09-27T11:54:13.349Z,978.75
2022-09-27T11:55:13.327Z,978.71
2022-09-27T11:56:13.302Z,978.71
2022-09-27T11:57:13.297Z,978.71
2022-09-27T11:58:13.261Z,978.72
2022-09-27T11:59:13.243Z,978.71
2022-09-27T12:00:13.218Z,978.72
2022-09-27T12:01:13.220Z,978.71
2022-09-27T12:02:13.406Z,978.70
2022-09-27T12:03:13.183Z,978.71
2022-09-27T12:04:13.135Z,978.64
2022-09-27T12:05:13.116Z,978.67
2022-09-27T12:06:13.093Z,978.65
2022-09-27T12:07:13.071Z,978.63
2022-09-27T12:08:13.055Z,978.65
2022-09-27T12:09:13.042Z,978.63
2022-09-27T12:10:13.010Z,978.62
2022-09-27T12:11:12.993Z,978.63
2022-09-27T12:12:12.974Z,978.60
2022-09-27T12:13:12.955Z,978.61
2022-09-27T12:14:12.936Z,978.61
2022-09-27T12:15:12.912Z,978.58
2022-09-27T12:16:12.995Z,978.56
2022-09-27T12:17:12.875Z,978.54
2022-09-27T12:18:12.857Z,978.57
2022-09-27T12:19:12.856Z,978.49
2022-09-27T12:20:12.820Z,978.48
2022-09-27T12:21:12.791Z,978.54
2022-09-27T12:22:12.776Z,978.48
2022-09-27T12:23:12.753Z,978.55
2022-09-27T12:24:12.733Z,978.49
2022-09-27T12:25:14.990Z,978.50
2022-09-27T12:26:12.705Z,978.49
2022-09-27T12:27:12.680Z,978.49
2022-09-27T12:28:13.503Z,978.49
2022-09-27T12:29:12.647Z,978.48
2022-09-27T12:30:12.620Z,978.50